Time;durP1;ratioP1;P1;durP2;ratioP2;P2;SDS_P1;SDS_P2;PMS_P1;PMS_P2;Temp;Humidity;BMP_temperature;BMP_pressure;BME280_temperature;BME280_humidity;BME280_pressure;Samples;Min_cycle;Max_cycle;Signal;HPM_P1;HPM_P2
2021/12/07 00:02:12;;;;;;;5.53;3.63;;;;;;;6.64;64.48;100429.13;5061658;28;20064;-58
2021/12/07 00:04:41;;;;;;;5.55;3.60;;;;;;;6.66;64.76;100433.22;5068494;28;20040;-58
2021/12/07 00:07:09;;;;;;;6.68;4.03;;;;;;;6.65;64.55;100436.91;5075603;28;20044;-58
2021/12/07 00:09:37;;;;;;;5.00;3.90;;;;;;;6.63;64.40;100441.63;5062696;28;20045;-58
2021/12/07 00:12:06;;;;;;;6.22;4.03;;;;;;;6.63;64.43;100440.81;5063715;28;20049;-58
2021/12/07 00:14:39;;;;;;;5.70;3.75;;;;;;;6.59;64.66;100445.75;5056081;28;20044;-58
2021/12/07 00:17:08;;;;;;;6.05;4.20;;;;;;;6.59;64.75;100444.94;5062791;28;20044;-58
2021/12/07 00:19:36;;;;;;;6.32;4.07;;;;;;;6.59;64.87;100448.41;5054780;28;20363;-58
2021/12/07 00:22:07;;;;;;;8.23;3.47;;;;;;;6.58;64.79;100454.78;5055288;28;20087;-58
2021/12/07 00:24:39;;;;;;;5.70;3.65;;;;;;;6.59;64.89;100453.75;5064275;28;20068;-58
2021/12/07 00:27:07;;;;;;;6.78;4.35;;;;;;;6.58;65.01;100460.13;5061327;28;20084;-58
2021/12/07 00:29:38;;;;;;;7.13;5.00;;;;;;;6.57;64.75;100452.31;5072417;28;20044;-58
2021/12/07 00:32:19;;;;;;;7.47;4.72;;;;;;;6.56;64.98;100461.34;5065164;28;20083;-58
2021/12/07 00:35:02;;;;;;;6.15;4.07;;;;;;;6.56;65.07;100462.19;5061036;28;20057;-58
2021/12/07 00:37:34;;;;;;;6.65;4.53;;;;;;;6.55;65.13;100468.53;5064156;28;20164;-58
2021/12/07 00:40:04;;;;;;;10.27;4.78;;;;;;;6.53;65.22;100476.75;5074947;28;20048;-58
2021/12/07 00:42:32;;;;;;;8.68;5.00;;;;;;;6.36;65.31;100448.00;5064527;28;20064;-58
2021/12/07 00:45:01;;;;;;;9.57;4.95;;;;;;;6.51;65.65;100480.66;5063927;28;20056;-58
2021/12/07 00:47:29;;;;;;;7.93;5.10;;;;;;;6.49;65.63;100493.38;5058781;28;20057;-57
2021/12/07 00:49:57;;;;;;;10.00;5.10;;;;;;;6.49;65.68;100499.53;5065981;28;20060;-58
2021/12/07 00:52:25;;;;;;;8.45;4.28;;;;;;;6.48;65.87;100492.56;5060872;28;20048;-58
2021/12/07 00:54:54;;;;;;;9.35;4.72;;;;;;;6.49;65.80;100502.22;5072003;28;20045;-58
2021/12/07 00:57:24;;;;;;;10.23;5.25;;;;;;;6.50;65.73;100506.53;5062588;28;20045;-57
2021/12/07 00:59:52;;;;;;;8.95;5.25;;;;;;;6.47;65.91;100506.94;5064773;28;20076;-58
2021/12/07 01:02:22;;;;;;;8.52;4.85;;;;;;;6.47;66.15;100512.28;5068108;28;20049;-58
2021/12/07 01:04:57;;;;;;;11.13;5.65;;;;;;;6.48;66.01;100524.59;5064947;28;20068;-58
2021/12/07 01:07:49;;;;;;;8.23;4.97;;;;;;;6.47;66.34;100520.28;5063587;28;20045;-58
2021/12/07 01:26:51;;;;;;;8.73;5.13;;;;;;;6.50;66.36;100562.59;5061509;28;20048;-58
2021/12/07 01:29:22;;;;;;;10.30;4.63;;;;;;;6.50;66.47;100553.75;5056720;28;20084;-58
2021/12/07 01:31:52;;;;;;;11.75;5.00;;;;;;;6.51;66.70;100564.25;5055473;28;20058;-58
2021/12/07 01:34:44;;;;;;;10.05;5.20;;;;;;;6.50;66.69;100565.25;5063980;28;20052;-58
2021/12/07 01:37:28;;;;;;;12.07;6.28;;;;;;;6.52;66.81;100573.06;5066878;28;20091;-58
2021/12/07 01:40:25;;;;;;;12.73;5.88;;;;;;;6.45;66.72;100556.22;5075778;28;20156;-58
2021/12/07 01:46:11;;;;;;;10.13;4.35;;;;;;;6.52;66.97;100579.22;5046585;28;20037;-58
2021/12/07 01:51:43;;;;;;;9.20;4.60;;;;;;;6.52;67.07;100586.41;5060140;28;20041;-58
2021/12/07 01:59:49;;;;;;;10.65;4.75;;;;;;;6.52;67.31;100610.44;5065439;28;20083;-58
2021/12/07 02:02:19;;;;;;;10.07;4.53;;;;;;;6.51;67.25;100609.63;5090193;28;20057;-58
2021/12/07 02:04:48;;;;;;;9.27;4.50;;;;;;;6.52;67.67;100615.78;5068053;28;20103;-58
2021/12/07 02:07:17;;;;;;;14.77;4.93;;;;;;;6.38;67.04;100595.41;5062598;28;20049;-57
2021/12/07 02:09:50;;;;;;;13.90;4.88;;;;;;;6.54;67.22;100624.41;5064373;28;20045;-49
2021/12/07 02:12:18;;;;;;;10.82;3.92;;;;;;;6.53;67.40;100623.59;5067706;28;20355;-56
2021/12/07 02:14:46;;;;;;;13.77;5.05;;;;;;;6.53;67.38;100633.44;5060980;28;20052;-58
2021/12/07 02:17:17;;;;;;;11.52;4.13;;;;;;;6.51;67.37;100627.47;5068006;28;20072;-58
2021/12/07 02:19:45;;;;;;;12.05;4.40;;;;;;;6.53;67.25;100628.09;5071032;28;20536;-58
2021/12/07 02:22:16;;;;;;;10.90;4.10;;;;;;;6.50;67.57;100637.34;5064137;28;20073;-58
2021/12/07 02:24:45;;;;;;;8.15;3.58;;;;;;;6.50;67.45;100628.50;5055155;28;20060;-59
2021/12/07 02:27:12;;;;;;;11.07;3.83;;;;;;;6.50;67.33;100644.53;5064603;28;20243;-52
2021/12/07 02:29:41;;;;;;;12.80;4.30;;;;;;;6.51;67.46;100648.84;5073969;28;20080;-58
2021/12/07 02:32:09;;;;;;;16.25;3.95;;;;;;;6.50;67.84;100650.69;5066665;28;20083;-59
2021/12/07 02:34:43;;;;;;;10.98;3.83;;;;;;;6.50;67.52;100647.19;5065508;28;20049;-57
2021/12/07 02:37:11;;;;;;;12.32;3.78;;;;;;;6.51;67.83;100656.84;5066898;28;20064;-58
2021/12/07 02:39:44;;;;;;;13.13;4.15;;;;;;;6.51;67.90;100663.00;5070700;28;20076;-58
2021/12/07 02:42:12;;;;;;;8.52;3.53;;;;;;;6.50;67.69;100661.38;5062742;28;20359;-58
2021/12/07 02:44:40;;;;;;;12.90;3.42;;;;;;;6.50;67.51;100656.03;5072165;28;20065;-58
2021/12/07 02:47:09;;;;;;;8.25;3.58;;;;;;;6.51;67.70;100667.53;5052600;28;20044;-58
2021/12/07 02:49:37;;;;;;;8.50;4.05;;;;;;;6.49;67.80;100674.91;5065917;28;20045;-58
2021/12/07 02:52:06;;;;;;;19.27;4.38;;;;;;;6.49;68.12;100682.94;5074172;28;20064;-58
2021/12/07 02:54:36;;;;;;;14.75;5.10;;;;;;;6.48;67.64;100684.78;5065185;28;20406;-58
2021/12/07 02:57:06;;;;;;;8.00;2.97;;;;;;;6.47;67.72;100680.47;5053052;28;20069;-58
2021/12/07 02:59:34;;;;;;;8.13;3.42;;;;;;;6.48;67.54;100692.78;5057360;28;20045;-58
2021/12/07 03:02:06;;;;;;;19.83;4.22;;;;;;;6.47;67.65;100693.81;5067083;28;20064;-58
2021/12/07 03:04:38;;;;;;;9.98;3.42;;;;;;;6.47;67.61;100693.81;5066702;28;20072;-58
2021/12/07 03:07:14;;;;;;;18.15;3.70;;;;;;;6.48;67.63;100698.13;5067556;28;20052;-58
2021/12/07 03:26:15;;;;;;;9.82;3.03;;;;;;;6.42;67.78;100711.44;5068801;28;20052;-58
2021/12/07 03:28:48;;;;;;;8.63;2.35;;;;;;;6.42;67.84;100714.94;5067489;28;20045;-57
2021/12/07 03:31:18;;;;;;;9.57;3.10;;;;;;;6.44;67.59;100718.22;5064095;28;20083;-58
2021/12/07 03:33:46;;;;;;;12.27;3.35;;;;;;;6.45;67.90;100719.06;5065132;28;20049;-58
2021/12/07 03:36:15;;;;;;;12.15;3.08;;;;;;;6.45;67.54;100735.06;5074492;28;20036;-59
2021/12/07 03:38:42;;;;;;;11.93;3.50;;;;;;;6.43;67.63;100726.44;5076876;28;20080;-58
2021/12/07 03:41:11;;;;;;;8.20;3.03;;;;;;;6.41;67.85;100736.47;5075027;28;20048;-59
2021/12/07 03:43:40;;;;;;;11.65;3.65;;;;;;;6.40;67.84;100746.34;5072707;28;20533;-58
2021/12/07 03:46:11;;;;;;;7.45;2.47;;;;;;;6.40;67.82;100749.00;5063512;28;20068;-59
2021/12/07 03:48:39;;;;;;;13.32;2.95;;;;;;;6.41;67.80;100756.00;5059042;28;20068;-59
2021/12/07 03:51:07;;;;;;;13.35;3.22;;;;;;;6.41;67.80;100763.19;5059722;28;20118;-59
2021/12/07 03:53:36;;;;;;;9.50;2.10;;;;;;;6.41;67.72;100753.31;5071989;28;20049;-59
2021/12/07 03:56:05;;;;;;;12.23;2.97;;;;;;;6.40;67.67;100757.00;5066769;28;20056;-59
2021/12/07 03:58:34;;;;;;;11.38;2.83;;;;;;;6.42;67.59;100762.97;5069975;28;20072;-58
2021/12/07 04:01:05;;;;;;;8.15;2.65;;;;;;;6.41;67.44;100761.31;5062599;28;20064;-59
2021/12/07 04:03:36;;;;;;;10.77;2.70;;;;;;;6.30;67.82;100748.53;5071773;28;20056;-59
2021/12/07 04:06:06;;;;;;;8.07;2.60;;;;;;;6.38;67.78;100756.38;5060401;28;20103;-59
2021/12/07 04:08:37;;;;;;;10.13;2.70;;;;;;;6.39;67.64;100754.53;5072130;28;20057;-59
2021/12/07 04:11:05;;;;;;;10.88;3.20;;;;;;;6.36;67.40;100757.59;5064606;28;20137;-59
2021/12/07 04:13:33;;;;;;;12.30;3.30;;;;;;;6.35;67.70;100764.78;5071763;28;20041;-57
2021/12/07 04:16:02;;;;;;;14.15;3.60;;;;;;;6.36;67.66;100771.78;5069496;28;20071;-59
2021/12/07 04:18:30;;;;;;;11.48;3.83;;;;;;;6.35;67.66;100778.13;5076932;28;20156;-56
2021/12/07 04:21:01;;;;;;;9.35;2.80;;;;;;;6.34;67.77;100781.81;5071131;28;20109;-58
2021/12/07 04:23:29;;;;;;;15.23;3.20;;;;;;;6.33;67.87;100782.00;5064409;28;20118;-59
2021/12/07 04:25:58;;;;;;;7.25;2.42;;;;;;;6.32;68.04;100785.69;5059514;28;20080;-59
2021/12/07 04:28:26;;;;;;;9.77;2.75;;;;;;;6.33;67.67;100787.34;5067359;28;20060;-59
2021/12/07 04:30:54;;;;;;;12.32;3.45;;;;;;;6.32;67.80;100791.88;5074798;28;20079;-56
2021/12/07 04:33:22;;;;;;;7.70;2.60;;;;;;;6.32;67.51;100785.69;5065356;28;20056;-58
2021/12/07 04:35:51;;;;;;;10.43;2.63;;;;;;;6.31;67.60;100794.72;5081403;28;20084;-59
2021/12/07 04:38:20;;;;;;;12.07;3.20;;;;;;;6.31;67.78;100797.41;5068613;28;20041;-59
2021/12/07 04:40:48;;;;;;;10.52;2.92;;;;;;;6.31;67.48;100797.41;5060296;28;20383;-59
2021/12/07 04:43:17;;;;;;;12.25;3.55;;;;;;;6.30;67.64;100793.06;5075261;28;20076;-58
2021/12/07 04:45:58;;;;;;;8.20;2.47;;;;;;;6.32;67.91;100812.38;5071440;28;20048;-59
2021/12/07 04:59:28;;;;;;;12.25;3.05;;;;;;;6.25;67.70;100799.00;5068333;28;20079;-59
2021/12/07 05:01:56;;;;;;;13.77;3.22;;;;;;;6.26;67.60;100802.50;5080054;28;20450;-59
2021/12/07 05:04:28;;;;;;;11.30;2.83;;;;;;;6.26;67.66;100791.81;5068649;28;20079;-58
2021/12/07 05:07:04;;;;;;;7.22;2.70;;;;;;;6.28;67.53;100803.13;5071453;28;20052;-56
2021/12/07 05:10:04;;;;;;;8.68;2.90;;;;;;;6.25;67.78;100816.84;5067406;28;20079;-55
2021/12/07 05:12:35;;;;;;;13.68;2.97;;;;;;;6.24;67.58;100810.69;5070256;28;20048;-59
2021/12/07 05:15:14;;;;;;;7.88;2.38;;;;;;;6.23;67.72;100827.72;5069891;28;20363;-59
2021/12/07 05:18:01;;;;;;;12.45;4.00;;;;;;;6.21;67.42;100829.75;5065934;28;20087;-59
2021/12/07 05:34:32;;;;;;;13.93;5.10;;;;;;;6.22;67.72;100836.75;5062725;28;20143;-59
2021/12/07 05:37:43;;;;;;;6.82;2.65;;;;;;;6.31;67.18;100853.44;4993284;28;20048;-58
2021/12/07 05:37:48;;;;;;;16.88;4.30;;;;;;;6.47;67.04;100864.66;4995991;28;20038;-58
2021/12/07 05:40:19;;;;;;;9.18;3.33;;;;;;;6.63;65.92;100868.88;4996142;28;20515;-58
2021/12/07 05:42:49;;;;;;;10.57;4.05;;;;;;;6.80;65.83;100867.53;4996708;28;20050;-58
2021/12/07 05:45:19;;;;;;;12.27;3.17;;;;;;;6.81;65.05;100852.34;4994911;28;20069;-59
2021/12/07 05:47:47;;;;;;;12.30;3.28;;;;;;;6.91;65.30;100881.38;4999308;28;20162;-59
2021/12/07 05:50:17;;;;;;;14.27;3.22;;;;;;;6.89;65.31;100886.09;5004086;28;20617;-59
2021/12/07 05:52:45;;;;;;;10.13;2.83;;;;;;;6.83;65.59;100888.53;4996143;28;20054;-58
2021/12/07 05:55:14;;;;;;;9.50;3.42;;;;;;;6.76;65.71;100889.50;5000960;28;20054;-57
2021/12/07 05:57:42;;;;;;;10.05;3.13;;;;;;;6.69;66.04;100897.47;5005450;28;20077;-59
2021/12/07 06:00:17;;;;;;;10.63;3.00;;;;;;;6.61;66.23;100897.63;4992379;28;20540;-59
2021/12/07 06:02:45;;;;;;;11.25;3.30;;;;;;;6.57;66.35;100907.03;4996627;28;20046;-59
2021/12/07 06:05:13;;;;;;;8.90;2.92;;;;;;;6.52;66.72;100907.63;4994311;28;20061;-59
2021/12/07 06:07:40;;;;;;;13.70;3.63;;;;;;;6.48;66.58;100906.34;5010269;28;20042;-58
2021/12/07 06:10:09;;;;;;;17.60;3.78;;;;;;;6.43;66.53;100902.63;5068109;28;20041;-61
2021/12/07 06:12:37;;;;;;;9.27;3.17;;;;;;;6.40;66.78;100906.50;5059516;28;20079;-60
2021/12/07 06:15:06;;;;;;;11.68;3.15;;;;;;;6.39;66.89;100909.34;5069512;28;20057;-57
2021/12/07 06:17:35;;;;;;;14.45;3.80;;;;;;;6.35;67.03;100906.25;5065668;28;20474;-58
2021/12/07 06:20:04;;;;;;;12.98;3.13;;;;;;;6.31;66.97;100910.31;5068618;28;20068;-59
2021/12/07 06:22:32;;;;;;;10.32;3.58;;;;;;;6.30;67.03;100907.84;5074652;28;20044;-59
2021/12/07 06:25:00;;;;;;;14.48;3.20;;;;;;;6.28;67.13;100908.03;5068319;28;20045;-61
2021/12/07 06:27:28;;;;;;;11.95;4.22;;;;;;;6.28;67.23;100910.69;5065548;28;20048;-61
2021/12/07 06:29:57;;;;;;;14.95;3.72;;;;;;;6.27;67.23;100909.06;5066035;28;20056;-57
2021/12/07 06:32:25;;;;;;;12.07;2.67;;;;;;;6.25;67.17;100912.94;5070686;28;20045;-61
2021/12/07 06:34:54;;;;;;;16.67;4.03;;;;;;;6.35;66.76;100922.25;5066382;28;20513;-60
2021/12/07 06:37:22;;;;;;;10.80;2.90;;;;;;;6.48;66.28;100922.38;5058666;28;20045;-60
2021/12/07 06:39:50;;;;;;;10.50;3.28;;;;;;;6.61;65.86;100921.66;5078019;28;20063;-64
2021/12/07 06:42:18;;;;;;;14.23;3.60;;;;;;;6.77;65.35;100913.34;4701609;28;9999613;-63
2021/12/07 06:44:46;;;;;;;10.15;3.20;;;;;;;6.92;64.59;100915.91;5056850;28;20132;-59
2021/12/07 06:47:13;;;;;;;11.77;2.70;;;;;;;7.06;63.91;100916.78;5058848;28;20048;-61
2021/12/07 06:49:42;;;;;;;12.82;3.10;;;;;;;7.20;63.75;100921.16;5058335;28;20052;-62
2021/12/07 06:52:11;;;;;;;7.57;2.65;;;;;;;7.31;63.56;100917.94;5062620;28;20076;-60
2021/12/07 06:54:38;;;;;;;11.82;3.30;;;;;;;7.41;62.95;100910.38;5057850;28;20440;-62
2021/12/07 06:57:06;;;;;;;11.73;2.95;;;;;;;7.54;62.66;100911.44;5048888;28;20044;-63
2021/12/07 06:59:34;;;;;;;10.45;2.78;;;;;;;7.64;61.79;100915.41;5057341;28;20045;-63
2021/12/07 07:02:02;;;;;;;7.40;2.40;;;;;;;7.77;61.72;100917.28;5057358;28;20045;-62
2021/12/07 07:04:30;;;;;;;8.02;2.85;;;;;;;7.82;61.47;100923.69;5056472;28;20048;-59
2021/12/07 07:06:58;;;;;;;13.55;4.28;;;;;;;7.89;60.76;100923.69;5061175;28;20048;-61
2021/12/07 07:09:27;;;;;;;9.27;3.70;;;;;;;7.88;61.48;100924.72;5065571;28;20037;-62
2021/12/07 07:11:55;;;;;;;12.80;3.83;;;;;;;8.04;60.81;100926.19;5066173;28;20082;-60
2021/12/07 07:14:23;;;;;;;7.95;2.60;;;;;;;8.07;60.99;100934.66;5063125;28;20041;-63
2021/12/07 07:16:50;;;;;;;9.73;2.75;;;;;;;8.11;60.30;100930.53;5062914;28;20068;-61
2021/12/07 07:19:18;;;;;;;10.60;3.30;;;;;;;8.15;60.40;100931.78;5062798;28;20056;-60
2021/12/07 07:21:46;;;;;;;12.30;3.03;;;;;;;8.12;60.56;100932.19;5064351;28;20045;-60
2021/12/07 07:24:14;;;;;;;9.07;2.78;;;;;;;7.98;61.01;100927.00;5067072;28;20096;-62
2021/12/07 07:26:43;;;;;;;10.30;3.55;;;;;;;7.78;61.46;100921.59;5067267;28;20060;-61
2021/12/07 07:29:11;;;;;;;8.65;3.10;;;;;;;7.57;62.06;100930.59;5063150;28;20040;-60
2021/12/07 07:31:40;;;;;;;10.57;3.00;;;;;;;7.39;62.49;100939.16;5060497;28;20049;-63
2021/12/07 07:34:08;;;;;;;11.05;2.90;;;;;;;7.26;63.06;100946.28;5055908;28;20057;-60
2021/12/07 07:36:36;;;;;;;12.10;4.07;;;;;;;7.14;63.60;100941.50;5057500;28;20155;-60
2021/12/07 07:39:05;;;;;;;12.20;2.80;;;;;;;7.06;63.80;100952.34;5062821;28;20044;-61
2021/12/07 07:41:33;;;;;;;11.23;3.63;;;;;;;6.99;64.30;100942.63;5066018;28;20463;-61
2021/12/07 07:44:02;;;;;;;14.00;2.85;;;;;;;6.90;64.23;100939.31;5072048;28;20566;-61
2021/12/07 07:46:30;;;;;;;8.90;3.05;;;;;;;6.77;64.59;100923.19;5067312;28;20045;-59
2021/12/07 07:49:00;;;;;;;7.32;2.63;;;;;;;6.81;64.96;100943.16;5058682;28;20116;-61
2021/12/07 07:51:27;;;;;;;9.45;3.05;;;;;;;6.74;65.19;100944.97;5061178;28;20044;-61
2021/12/07 07:53:57;;;;;;;10.38;3.22;;;;;;;6.68;65.24;100937.72;5065151;28;20049;-62
2021/12/07 07:56:26;;;;;;;7.85;2.88;;;;;;;6.66;65.18;100937.09;5066509;28;20069;-61
2021/12/07 07:58:54;;;;;;;9.10;2.97;;;;;;;6.63;65.39;100946.31;5063396;28;20052;-61
2021/12/07 08:01:24;;;;;;;13.00;3.05;;;;;;;6.62;65.48;100941.16;5060923;28;20041;-61
2021/12/07 08:03:52;;;;;;;14.05;4.50;;;;;;;6.72;65.44;100934.47;5066837;28;20053;-61
2021/12/07 08:06:20;;;;;;;7.47;3.00;;;;;;;6.86;64.89;100932.72;5069285;28;20065;-61
2021/12/07 08:08:48;;;;;;;11.23;4.05;;;;;;;7.00;64.41;100939.75;5065160;28;20091;-61
2021/12/07 08:11:16;;;;;;;8.50;2.42;;;;;;;7.13;63.80;100941.69;5064758;28;20052;-61
2021/12/07 08:13:53;;;;;;;10.90;3.38;;;;;;;7.29;63.39;100946.72;5057704;28;20064;-61
2021/12/07 08:16:21;;;;;;;8.52;2.95;;;;;;;7.43;62.87;100951.09;5063710;28;20053;-61
2021/12/07 08:18:52;;;;;;;11.25;2.95;;;;;;;7.57;61.90;100952.00;5060966;28;20041;-61
2021/12/07 08:21:20;;;;;;;7.00;2.58;;;;;;;7.71;61.63;100955.53;5065973;28;20075;-61
2021/12/07 08:23:49;;;;;;;12.13;3.25;;;;;;;7.75;61.46;100960.28;5061481;28;20186;-61
2021/12/07 08:26:20;;;;;;;10.13;2.88;;;;;;;7.68;61.26;100956.75;5063397;28;20049;-62
2021/12/07 08:28:50;;;;;;;11.43;3.70;;;;;;;7.56;61.89;100965.56;5060020;28;20053;-61
2021/12/07 08:31:18;;;;;;;7.88;3.30;;;;;;;7.39;63.07;100971.25;5058691;28;20052;-61
2021/12/07 08:33:46;;;;;;;7.10;2.72;;;;;;;7.24;63.00;100978.56;5057459;28;20068;-61
2021/12/07 08:36:16;;;;;;;6.68;2.90;;;;;;;7.13;64.09;100979.94;5065742;28;20099;-61
2021/12/07 08:38:45;;;;;;;13.40;2.72;;;;;;;7.04;64.26;100973.09;5062867;28;20049;-60
2021/12/07 08:41:14;;;;;;;10.52;2.83;;;;;;;6.99;63.83;100977.38;5057198;28;20045;-61
2021/12/07 08:43:42;;;;;;;11.25;3.33;;;;;;;6.96;64.25;100978.59;5059398;28;20329;-61
2021/12/07 08:46:12;;;;;;;10.55;3.25;;;;;;;6.92;64.65;100981.88;5063078;28;20057;-61
2021/12/07 08:48:42;;;;;;;9.00;3.15;;;;;;;6.82;64.57;100959.00;5060926;28;20045;-60
2021/12/07 08:51:12;;;;;;;16.98;4.70;;;;;;;6.86;64.67;100970.13;5056151;28;20067;-60
2021/12/07 08:53:48;;;;;;;12.75;3.38;;;;;;;6.81;64.61;100952.00;5055024;28;20052;-60
2021/12/07 09:01:47;;;;;;;13.88;4.30;;;;;;;6.78;64.78;100952.38;5055656;28;20049;-61
2021/12/07 09:04:17;;;;;;;10.13;3.15;;;;;;;6.75;65.09;100946.59;5054976;28;20077;-60
2021/12/07 09:06:45;;;;;;;10.82;3.30;;;;;;;6.69;65.40;100937.53;5055564;28;20068;-60
2021/12/07 09:09:15;;;;;;;13.68;3.08;;;;;;;6.72;65.11;100933.66;5058840;28;20044;-61
2021/12/07 09:11:43;;;;;;;6.75;2.58;;;;;;;6.70;65.34;100930.34;5058680;28;20486;-61
2021/12/07 09:14:15;;;;;;;11.25;2.92;;;;;;;6.71;65.50;100919.47;5061572;28;20056;-61
2021/12/07 09:16:44;;;;;;;6.22;2.58;;;;;;;6.69;65.48;100929.50;5058603;28;20059;-61
2021/12/07 09:19:12;;;;;;;12.05;4.50;;;;;;;6.67;65.38;100923.53;5059233;28;20075;-60
2021/12/07 09:21:41;;;;;;;9.25;3.38;;;;;;;6.67;65.18;100928.06;5058948;28;20045;-61
2021/12/07 09:24:09;;;;;;;11.68;2.85;;;;;;;6.67;65.60;100931.56;5053930;28;20110;-61
2021/12/07 09:26:39;;;;;;;9.70;3.58;;;;;;;6.75;65.37;100931.41;5062327;28;20049;-57
2021/12/07 09:29:08;;;;;;;9.13;3.03;;;;;;;6.91;64.94;100940.97;5057355;28;20564;-61
2021/12/07 09:31:36;;;;;;;6.00;2.88;;;;;;;7.05;64.46;100937.34;5057683;28;20044;-57
2021/12/07 09:34:06;;;;;;;5.38;2.35;;;;;;;7.21;64.37;100936.19;5061579;28;20052;-60
2021/12/07 09:36:34;;;;;;;7.07;3.08;;;;;;;7.34;63.72;100941.59;5066884;28;20432;-60
2021/12/07 09:39:04;;;;;;;9.30;2.85;;;;;;;7.48;63.62;100939.81;5058032;28;20049;-60
2021/12/07 09:41:32;;;;;;;7.63;2.83;;;;;;;7.62;62.80;100936.16;5057729;28;20045;-58
2021/12/07 09:44:02;;;;;;;8.48;2.65;;;;;;;7.79;62.50;100931.28;5057905;28;20088;-62
2021/12/07 09:46:30;;;;;;;11.02;3.63;;;;;;;7.86;62.33;100929.44;5059340;28;20095;-60
2021/12/07 09:48:58;;;;;;;10.10;2.97;;;;;;;7.96;61.51;100918.34;5061373;28;20056;-57
2021/12/07 09:51:27;;;;;;;9.98;2.65;;;;;;;7.89;61.56;100928.22;5062547;28;20047;-60
2021/12/07 09:53:57;;;;;;;15.10;2.83;;;;;;;7.78;62.76;100930.47;5062207;28;20383;-61
2021/12/07 09:56:27;;;;;;;9.68;2.83;;;;;;;7.68;62.76;100929.19;5062079;28;20064;-58
2021/12/07 09:58:57;;;;;;;9.50;3.15;;;;;;;7.56;63.19;100934.28;5059136;28;20053;-60
2021/12/07 10:01:29;;;;;;;7.93;3.10;;;;;;;7.45;63.70;100921.50;5059841;28;20045;-60
2021/12/07 10:03:58;;;;;;;10.82;3.50;;;;;;;7.38;64.52;100929.50;5059203;28;20091;-62
2021/12/07 10:06:26;;;;;;;8.73;2.50;;;;;;;7.31;64.59;100930.47;5060929;28;20080;-60
2021/12/07 10:08:54;;;;;;;9.50;2.58;;;;;;;7.25;64.43;100925.91;5060718;28;20130;-59
2021/12/07 10:11:23;;;;;;;8.75;2.35;;;;;;;7.19;65.18;100925.69;5059628;28;20114;-61
2021/12/07 10:13:52;;;;;;;8.90;2.97;;;;;;;7.16;65.02;100919.91;5059385;28;20052;-60
2021/12/07 10:16:22;;;;;;;9.15;3.47;;;;;;;7.12;65.01;100924.00;5059078;28;20041;-60
2021/12/07 10:18:59;;;;;;;10.60;3.50;;;;;;;7.09;65.69;100908.38;5060284;28;20045;-56
2021/12/07 10:21:31;;;;;;;6.68;2.60;;;;;;;7.08;65.52;100904.88;5059372;28;20055;-60
2021/12/07 10:24:02;;;;;;;8.73;3.38;;;;;;;7.05;66.16;100904.44;5061316;28;20049;-60
2021/12/07 10:26:33;;;;;;;8.32;2.75;;;;;;;7.01;66.15;100909.34;5061831;28;20057;-57
2021/12/07 10:29:07;;;;;;;10.77;2.88;;;;;;;7.00;66.40;100901.53;5057324;28;20045;-60
2021/12/07 10:31:38;;;;;;;8.85;2.33;;;;;;;6.97;66.32;100908.09;5055164;28;20075;-59
2021/12/07 10:34:11;;;;;;;8.57;3.20;;;;;;;6.96;66.52;100894.94;5062105;28;20053;-61
2021/12/07 10:36:44;;;;;;;9.77;2.95;;;;;;;6.94;66.61;100887.13;5060241;28;20061;-60
2021/12/07 10:39:14;;;;;;;10.13;2.90;;;;;;;6.93;66.13;100890.84;5057335;28;20068;-62
2021/12/07 10:41:44;;;;;;;10.48;2.50;;;;;;;6.92;66.87;100878.50;5062391;28;20037;-61
2021/12/07 10:44:14;;;;;;;9.27;2.95;;;;;;;6.94;66.32;100875.59;5057562;28;20052;-60
2021/12/07 10:46:52;;;;;;;6.32;2.85;;;;;;;6.92;66.66;100867.00;5060824;28;20053;-60
2021/12/07 10:49:41;;;;;;;9.48;2.88;;;;;;;6.92;66.89;100870.50;5062225;28;20071;-60
2021/12/07 10:52:27;;;;;;;7.78;2.85;;;;;;;6.93;66.67;100865.97;5058769;28;20410;-61
2021/12/07 10:54:59;;;;;;;11.65;3.05;;;;;;;6.92;66.52;100858.97;5059299;28;20052;-57
2021/12/07 10:57:30;;;;;;;12.90;3.80;;;;;;;6.93;66.78;100868.63;5059094;28;20060;-61
2021/12/07 11:00:08;;;;;;;12.63;3.50;;;;;;;6.92;66.79;100849.13;5057038;28;20065;-62
2021/12/07 11:02:37;;;;;;;9.93;3.65;;;;;;;6.96;66.77;100842.31;5059846;28;20095;-59
2021/12/07 11:05:10;;;;;;;11.57;2.95;;;;;;;6.96;66.75;100842.31;5058273;28;20045;-60
2021/12/07 11:07:38;;;;;;;9.90;3.70;;;;;;;6.95;66.91;100835.34;5058880;28;20044;-62
2021/12/07 11:10:14;;;;;;;14.00;3.47;;;;;;;6.96;67.24;100831.63;5059894;28;20689;-62
2021/12/07 11:12:49;;;;;;;10.43;2.60;;;;;;;7.00;67.04;100818.69;5061211;28;20052;-63
2021/12/07 11:15:23;;;;;;;14.13;4.25;;;;;;;6.98;67.42;100813.56;5057359;28;20079;-58
2021/12/07 11:17:53;;;;;;;13.38;3.85;;;;;;;6.99;67.82;100807.19;5060152;28;20067;-61
2021/12/07 11:20:22;;;;;;;11.13;3.55;;;;;;;7.00;67.86;100800.00;5058498;28;20152;-61
2021/12/07 11:22:54;;;;;;;15.45;3.58;;;;;;;7.01;67.45;100799.81;5057898;28;20049;-62
2021/12/07 11:25:42;;;;;;;11.98;3.97;;;;;;;7.04;67.22;100806.59;5059480;28;20124;-62
2021/12/07 11:31:13;;;;;;;6.78;2.75;;;;;;;7.07;67.46;100796.31;5057714;28;20045;-60
2021/12/07 11:33:41;;;;;;;11.57;3.10;;;;;;;7.08;67.73;100789.13;5059652;28;20056;-62
2021/12/07 11:36:24;;;;;;;11.50;3.45;;;;;;;7.10;67.69;100790.59;5060289;28;20045;-62
2021/12/07 11:38:53;;;;;;;10.07;2.78;;;;;;;7.13;67.74;100797.38;5057966;28;20135;-63
2021/12/07 11:41:25;;;;;;;9.85;3.45;;;;;;;7.17;67.50;100791.44;5057305;28;20088;-62
2021/12/07 11:43:57;;;;;;;9.15;3.00;;;;;;;7.18;67.37;100786.91;5058091;28;20443;-62
2021/12/07 11:46:27;;;;;;;12.75;3.20;;;;;;;7.18;67.32;100789.59;5057701;28;20052;-63
2021/12/07 11:49:11;;;;;;;12.73;3.45;;;;;;;7.18;67.66;100777.03;5059647;28;20064;-64
2021/12/07 11:51:41;;;;;;;9.93;3.45;;;;;;;7.21;67.41;100778.50;5058883;28;20040;-64
2021/12/07 11:54:09;;;;;;;9.15;2.92;;;;;;;7.21;67.33;100775.00;5059018;28;20190;-62
2021/12/07 11:56:38;;;;;;;9.13;2.92;;;;;;;7.22;67.63;100769.44;5059472;28;20136;-62
2021/12/07 11:59:07;;;;;;;8.52;2.95;;;;;;;7.22;67.60;100763.28;5063590;28;20068;-62
2021/12/07 12:01:44;;;;;;;9.73;3.83;;;;;;;7.21;67.27;100758.97;5061765;28;20530;-62
2021/12/07 12:04:13;;;;;;;9.00;2.90;;;;;;;7.21;67.47;100751.75;5065408;28;20143;-62
2021/12/07 12:06:43;;;;;;;13.45;2.97;;;;;;;7.23;67.28;100760.41;5061341;28;20470;-62
2021/12/07 12:09:11;;;;;;;9.63;2.90;;;;;;;7.25;67.74;100749.50;5059901;28;20041;-61
2021/12/07 12:11:45;;;;;;;11.23;2.72;;;;;;;7.24;67.51;100754.03;5064042;28;20103;-62
2021/12/07 12:14:31;;;;;;;10.88;2.60;;;;;;;7.27;67.86;100742.09;5063129;28;20079;-60
2021/12/07 12:17:06;;;;;;;10.65;3.60;;;;;;;7.26;67.76;100735.94;5063347;28;20044;-62
2021/12/07 12:19:47;;;;;;;8.18;2.60;;;;;;;7.26;67.89;100725.25;5063734;28;20060;-61
2021/12/07 12:22:25;;;;;;;9.32;2.58;;;;;;;7.28;67.99;100722.38;5062838;28;20041;-60
2021/12/07 12:24:56;;;;;;;10.55;2.42;;;;;;;7.30;67.61;100713.13;5063273;28;20075;-62
2021/12/07 12:27:27;;;;;;;8.07;2.63;;;;;;;7.31;67.87;100713.94;5062760;28;20056;-62
2021/12/07 12:29:58;;;;;;;6.72;2.45;;;;;;;7.33;67.63;100703.88;5065047;28;20045;-62
2021/12/07 12:32:30;;;;;;;8.38;2.22;;;;;;;7.34;67.86;100702.84;5058675;28;20045;-55
2021/12/07 12:34:59;;;;;;;9.80;2.47;;;;;;;7.32;67.85;100700.38;5060923;28;20045;-59
2021/12/07 12:37:31;;;;;;;7.07;2.58;;;;;;;7.33;67.99;100695.84;5061782;28;20048;-62
2021/12/07 12:40:01;;;;;;;9.60;2.70;;;;;;;7.36;68.09;100695.44;5061586;28;20107;-61
2021/12/07 12:42:33;;;;;;;10.60;3.13;;;;;;;7.29;67.59;100678.56;5062370;28;20137;-62
2021/12/07 12:45:17;;;;;;;8.73;2.72;;;;;;;7.31;67.62;100666.66;5059774;28;20106;-62
2021/12/07 12:47:46;;;;;;;9.90;2.78;;;;;;;7.38;67.88;100669.31;5060760;28;20037;-62
2021/12/07 12:50:18;;;;;;;7.28;1.92;;;;;;;7.38;67.57;100663.97;5065204;28;20041;-62
2021/12/07 12:52:49;;;;;;;9.70;3.50;;;;;;;7.31;67.58;100634.56;5063175;28;20072;-60
2021/12/07 12:55:32;;;;;;;9.88;2.85;;;;;;;7.39;67.95;100644.25;5058783;28;20279;-59
2021/12/07 12:58:02;;;;;;;12.10;2.83;;;;;;;7.40;67.24;100633.34;5062631;28;20051;-59
2021/12/07 13:00:58;;;;;;;9.73;2.33;;;;;;;7.40;67.68;100628.00;5058611;28;20041;-60
2021/12/07 13:03:37;;;;;;;8.52;2.50;;;;;;;7.41;68.00;100616.28;5063115;28;20111;-62